sensor_id;sensor_type;location;lat;lon;timestamp;noise_LAeq;noise_LA_min;noise_LA_max;noise_LA01;noise_LA95
69609;Laerm;56815;52.320;4.858;2023-07-20T00:00:05;30.78;29.33;32.76;;
69609;Laerm;56815;52.320;4.858;2023-07-20T00:00:16;30.65;28.97;34.52;;
69609;Laerm;56815;52.320;4.858;2023-07-20T00:00:26;30.19;28.98;33.24;;
69609;Laerm;56815;52.320;4.858;2023-07-20T00:00:36;31.59;28.81;48.22;;
69609;Laerm;56815;52.320;4.858;2023-07-20T00:00:46;42.35;29.17;53.23;;
69609;Laerm;56815;52.320;4.858;2023-07-20T00:00:57;30.60;28.79;41.96;;
69609;Laerm;56815;52.320;4.858;2023-07-20T00:01:07;30.42;29.09;32.69;;
69609;Laerm;56815;52.320;4.858;2023-07-20T00:01:17;32.04;29.48;35.03;;
69609;Laerm;56815;52.320;4.858;2023-07-20T00:01:27;31.66;29.65;33.79;;
69609;Laerm;56815;52.320;4.858;2023-07-20T00:01:38;30.76;29.12;31.96;;
69609;Laerm;56815;52.320;4.858;2023-07-20T00:01:48;30.65;28.22;34.00;;
69609;Laerm;56815;52.320;4.858;2023-07-20T00:01:58;30.29;28.97;32.68;;
69609;Laerm;56815;52.320;4.858;2023-07-20T00:02:08;31.49;28.61;46.44;;
69609;Laerm;56815;52.320;4.858;2023-07-20T00:02:19;32.13;29.45;43.86;;
69609;Laerm;56815;52.320;4.858;2023-07-20T00:02:29;30.42;28.79;32.11;;
69609;Laerm;56815;52.320;4.858;2023-07-20T00:02:39;30.51;29.16;32.60;;
69609;Laerm;56815;52.320;4.858;2023-07-20T00:02:50;30.71;29.04;35.52;;
69609;Laerm;56815;52.320;4.858;2023-07-20T00:03:13;30.66;28.98;33.85;;
69609;Laerm;56815;52.320;4.858;2023-07-20T00:03:26;30.35;28.57;35.09;;
69609;Laerm;56815;52.320;4.858;2023-07-20T00:03:36;30.18;28.49;31.86;;
69609;Laerm;56815;52.320;4.858;2023-07-20T00:03:47;30.21;28.86;33.13;;
69609;Laerm;56815;52.320;4.858;2023-07-20T00:04:04;31.70;28.74;47.33;;
69609;Laerm;56815;52.320;4.858;2023-07-20T00:04:14;30.67;29.23;35.77;;
69609;Laerm;56815;52.320;4.858;2023-07-20T00:04:25;31.07;29.31;35.40;;
69609;Laerm;56815;52.320;4.858;2023-07-20T00:04:35;32.44;29.99;48.77;;
69609;Laerm;56815;52.320;4.858;2023-07-20T00:04:45;30.89;29.26;33.39;;
69609;Laerm;56815;52.320;4.858;2023-07-20T00:04:56;31.72;28.59;50.04;;
69609;Laerm;56815;52.320;4.858;2023-07-20T00:05:06;30.14;28.66;33.41;;
69609;Laerm;56815;52.320;4.858;2023-07-20T00:05:16;31.17;28.81;41.67;;
69609;Laerm;56815;52.320;4.858;2023-07-20T00:05:31;30.59;28.85;35.01;;
69609;Laerm;56815;52.320;4.858;2023-07-20T00:05:44;29.92;28.77;31.76;;
69609;Laerm;56815;52.320;4.858;2023-07-20T00:05:55;29.85;28.53;32.26;;
69609;Laerm;56815;52.320;4.858;2023-07-20T00:06:05;30.36;28.53;37.22;;
69609;Laerm;56815;52.320;4.858;2023-07-20T00:06:15;30.27;28.54;36.24;;
69609;Laerm;56815;52.320;4.858;2023-07-20T00:06:26;40.12;28.58;55.57;;
69609;Laerm;56815;52.320;4.858;2023-07-20T00:06:37;31.77;28.57;47.52;;
69609;Laerm;56815;52.320;4.858;2023-07-20T00:06:50;40.94;28.34;61.93;;
69609;Laerm;56815;52.320;4.858;2023-07-20T00:07:00;30.04;28.45;37.07;;
69609;Laerm;56815;52.320;4.858;2023-07-20T00:07:11;38.90;29.25;55.57;;
69609;Laerm;56815;52.320;4.858;2023-07-20T00:07:21;37.05;28.42;53.50;;
69609;Laerm;56815;52.320;4.858;2023-07-20T00:07:31;29.67;28.11;32.90;;
69609;Laerm;56815;52.320;4.858;2023-07-20T00:07:42;30.21;28.45;36.37;;
69609;Laerm;56815;52.320;4.858;2023-07-20T00:07:52;29.78;28.41;31.65;;
69609;Laerm;56815;52.320;4.858;2023-07-20T00:08:02;30.82;28.06;48.26;;
69609;Laerm;56815;52.320;4.858;2023-07-20T00:08:13;30.76;28.45;43.88;;
69609;Laerm;56815;52.320;4.858;2023-07-20T00:08:23;30.08;28.76;31.65;;
69609;Laerm;56815;52.320;4.858;2023-07-20T00:08:34;30.67;29.32;34.23;;
69609;Laerm;56815;52.320;4.858;2023-07-20T00:08:44;30.65;28.54;32.97;;
69609;Laerm;56815;52.320;4.858;2023-07-20T00:08:55;30.55;29.00;32.98;;
69609;Laerm;56815;52.320;4.858;2023-07-20T00:09:05;31.16;29.10;35.44;;
69609;Laerm;56815;52.320;4.858;2023-07-20T00:09:16;35.49;29.99;42.37;;
69609;Laerm;56815;52.320;4.858;2023-07-20T00:09:26;39.10;31.88;46.90;;
69609;Laerm;56815;52.320;4.858;2023-07-20T00:09:36;43.69;36.18;49.60;;
69609;Laerm;56815;52.320;4.858;2023-07-20T00:09:47;44.56;38.90;49.52;;
69609;Laerm;56815;52.320;4.858;2023-07-20T00:09:57;44.89;40.30;49.08;;
69609;Laerm;56815;52.320;4.858;2023-07-20T00:10:08;46.42;39.38;51.21;;
69609;Laerm;56815;52.320;4.858;2023-07-20T00:10:18;46.56;39.34;52.49;;
69609;Laerm;56815;52.320;4.858;2023-07-20T00:10:29;40.23;33.71;46.68;;
69609;Laerm;56815;52.320;4.858;2023-07-20T00:10:40;33.87;30.66;39.70;;
69609;Laerm;56815;52.320;4.858;2023-07-20T00:10:50;31.16;29.55;33.48;;
69609;Laerm;56815;52.320;4.858;2023-07-20T00:11:00;30.41;28.53;32.92;;
69609;Laerm;56815;52.320;4.858;2023-07-20T00:11:11;29.90;28.66;31.95;;
69609;Laerm;56815;52.320;4.858;2023-07-20T00:11:24;29.72;28.33;31.43;;
69609;Laerm;56815;52.320;4.858;2023-07-20T00:11:36;30.86;28.31;46.24;;
69609;Laerm;56815;52.320;4.858;2023-07-20T00:11:50;29.53;28.28;31.03;;
69609;Laerm;56815;52.320;4.858;2023-07-20T00:12:00;30.09;28.58;35.38;;
69609;Laerm;56815;52.320;4.858;2023-07-20T00:12:11;29.89;28.69;32.48;;
69609;Laerm;56815;52.320;4.858;2023-07-20T00:12:21;30.10;28.65;31.35;;
69609;Laerm;56815;52.320;4.858;2023-07-20T00:12:31;29.91;28.71;31.26;;
69609;Laerm;56815;52.320;4.858;2023-07-20T00:12:42;30.09;28.74;34.06;;
69609;Laerm;56815;52.320;4.858;2023-07-20T00:12:57;30.53;28.88;34.94;;
69609;Laerm;56815;52.320;4.858;2023-07-20T00:13:08;30.35;28.90;37.77;;
69609;Laerm;56815;52.320;4.858;2023-07-20T00:13:18;30.13;29.02;33.43;;
69609;Laerm;56815;52.320;4.858;2023-07-20T00:13:29;29.90;28.44;32.95;;
69609;Laerm;56815;52.320;4.858;2023-07-20T00:13:39;29.97;28.70;31.21;;
69609;Laerm;56815;52.320;4.858;2023-07-20T00:13:50;29.90;28.39;32.00;;
69609;Laerm;56815;52.320;4.858;2023-07-20T00:14:00;29.86;28.82;31.23;;
69609;Laerm;56815;52.320;4.858;2023-07-20T00:14:10;29.74;28.35;34.42;;
69609;Laerm;56815;52.320;4.858;2023-07-20T00:14:20;29.83;28.37;32.30;;
69609;Laerm;56815;52.320;4.858;2023-07-20T00:14:31;29.59;28.56;31.04;;
69609;Laerm;56815;52.320;4.858;2023-07-20T00:14:42;29.60;28.19;31.18;;
69609;Laerm;56815;52.320;4.858;2023-07-20T00:14:52;29.68;28.15;32.84;;
69609;Laerm;56815;52.320;4.858;2023-07-20T00:15:03;29.79;28.15;32.24;;
69609;Laerm;56815;52.320;4.858;2023-07-20T00:15:14;29.87;28.74;31.43;;
69609;Laerm;56815;52.320;4.858;2023-07-20T00:15:24;30.14;28.38;31.74;;
69609;Laerm;56815;52.320;4.858;2023-07-20T00:15:34;30.12;28.75;34.27;;
69609;Laerm;56815;52.320;4.858;2023-07-20T00:15:45;30.63;28.68;31.73;;
69609;Laerm;56815;52.320;4.858;2023-07-20T00:15:55;30.76;29.12;35.88;;
69609;Laerm;56815;52.320;4.858;2023-07-20T00:16:05;29.83;28.73;31.85;;
69609;Laerm;56815;52.320;4.858;2023-07-20T00:16:16;29.80;28.52;31.31;;
69609;Laerm;56815;52.320;4.858;2023-07-20T00:16:26;29.84;28.65;31.57;;
69609;Laerm;56815;52.320;4.858;2023-07-20T00:16:36;29.92;28.20;32.96;;
69609;Laerm;56815;52.320;4.858;2023-07-20T00:16:46;30.07;28.68;32.68;;
69609;Laerm;56815;52.320;4.858;2023-07-20T00:16:59;29.99;28.59;31.94;;
69609;Laerm;56815;52.320;4.858;2023-07-20T00:17:09;30.85;28.82;37.33;;
69609;Laerm;56815;52.320;4.858;2023-07-20T00:17:19;31.09;29.37;33.08;;
69609;Laerm;56815;52.320;4.858;2023-07-20T00:17:30;30.19;28.80;32.87;;
69609;Laerm;56815;52.320;4.858;2023-07-20T00:17:40;30.08;28.68;31.81;;
69609;Laerm;56815;52.320;4.858;2023-07-20T00:17:51;30.27;28.32;34.65;;
69609;Laerm;56815;52.320;4.858;2023-07-20T00:18:02;29.90;28.76;31.37;;
69609;Laerm;56815;52.320;4.858;2023-07-20T00:18:12;29.60;28.35;31.04;;
69609;Laerm;56815;52.320;4.858;2023-07-20T00:18:23;30.06;28.46;37.91;;
69609;Laerm;56815;52.320;4.858;2023-07-20T00:18:34;29.75;28.64;30.93;;
69609;Laerm;56815;52.320;4.858;2023-07-20T00:18:44;30.06;28.39;32.55;;
69609;Laerm;56815;52.320;4.858;2023-07-20T00:18:54;32.35;28.66;45.41;;
69609;Laerm;56815;52.320;4.858;2023-07-20T00:19:04;30.27;29.00;32.61;;
69609;Laerm;56815;52.320;4.858;2023-07-20T00:19:17;31.69;29.47;41.88;;
69609;Laerm;56815;52.320;4.858;2023-07-20T00:19:27;31.44;29.89;33.04;;
69609;Laerm;56815;52.320;4.858;2023-07-20T00:19:38;32.42;29.03;47.95;;
69609;Laerm;56815;52.320;4.858;2023-07-20T00:19:48;30.26;28.92;32.81;;
69609;Laerm;56815;52.320;4.858;2023-07-20T00:19:58;30.02;28.60;32.52;;
69609;Laerm;56815;52.320;4.858;2023-07-20T00:20:08;30.20;28.73;33.10;;
69609;Laerm;56815;52.320;4.858;2023-07-20T00:20:19;30.76;29.11;37.48;;
69609;Laerm;56815;52.320;4.858;2023-07-20T00:20:29;30.54;28.47;34.60;;
69609;Laerm;56815;52.320;4.858;2023-07-20T00:20:39;31.31;29.66;33.53;;
69609;Laerm;56815;52.320;4.858;2023-07-20T00:20:50;31.08;28.90;44.07;;
69609;Laerm;56815;52.320;4.858;2023-07-20T00:21:01;30.29;28.52;31.95;;
69609;Laerm;56815;52.320;4.858;2023-07-20T00:21:11;30.35;28.74;32.20;;
69609;Laerm;56815;52.320;4.858;2023-07-20T00:21:22;30.32;28.55;32.06;;
69609;Laerm;56815;52.320;4.858;2023-07-20T00:21:32;30.54;29.01;32.21;;
69609;Laerm;56815;52.320;4.858;2023-07-20T00:21:42;32.32;30.47;34.43;;
69609;Laerm;56815;52.320;4.858;2023-07-20T00:21:53;30.60;28.71;32.67;;
69609;Laerm;56815;52.320;4.858;2023-07-20T00:22:03;30.52;28.90;36.45;;
69609;Laerm;56815;52.320;4.858;2023-07-20T00:22:15;30.84;28.99;33.32;;
69609;Laerm;56815;52.320;4.858;2023-07-20T00:22:25;31.28;29.31;33.13;;
69609;Laerm;56815;52.320;4.858;2023-07-20T00:22:35;31.11;28.81;35.43;;
69609;Laerm;56815;52.320;4.858;2023-07-20T00:22:46;31.51;29.47;34.23;;
69609;Laerm;56815;52.320;4.858;2023-07-20T00:22:56;32.66;30.10;37.64;;
69609;Laerm;56815;52.320;4.858;2023-07-20T00:23:07;31.99;29.77;34.40;;
69609;Laerm;56815;52.320;4.858;2023-07-20T00:23:18;32.96;30.36;40.09;;
69609;Laerm;56815;52.320;4.858;2023-07-20T00:23:30;31.51;29.17;34.40;;
69609;Laerm;56815;52.320;4.858;2023-07-20T00:23:41;31.32;28.72;34.23;;
69609;Laerm;56815;52.320;4.858;2023-07-20T00:23:51;31.56;29.14;35.67;;
69609;Laerm;56815;52.320;4.858;2023-07-20T00:24:02;30.81;29.10;32.94;;
69609;Laerm;56815;52.320;4.858;2023-07-20T00:24:12;32.05;29.10;38.51;;
69609;Laerm;56815;52.320;4.858;2023-07-20T00:24:22;31.57;29.11;35.47;;
69609;Laerm;56815;52.320;4.858;2023-07-20T00:24:33;30.86;28.75;34.88;;
69609;Laerm;56815;52.320;4.858;2023-07-20T00:24:43;31.13;28.94;34.16;;
69609;Laerm;56815;52.320;4.858;2023-07-20T00:24:53;30.90;29.44;32.98;;
69609;Laerm;56815;52.320;4.858;2023-07-20T00:25:04;30.95;29.21;40.05;;
69609;Laerm;56815;52.320;4.858;2023-07-20T00:25:14;30.24;28.66;31.64;;
69609;Laerm;56815;52.320;4.858;2023-07-20T00:25:24;30.56;28.56;32.48;;
69609;Laerm;56815;52.320;4.858;2023-07-20T00:25:35;30.83;29.15;34.40;;
69609;Laerm;56815;52.320;4.858;2023-07-20T00:25:46;32.19;30.06;34.15;;
69609;Laerm;56815;52.320;4.858;2023-07-20T00:25:56;31.97;29.41;34.62;;
69609;Laerm;56815;52.320;4.858;2023-07-20T00:26:07;30.32;29.07;36.01;;
69609;Laerm;56815;52.320;4.858;2023-07-20T00:26:17;30.23;29.06;32.63;;
69609;Laerm;56815;52.320;4.858;2023-07-20T00:26:28;30.77;28.73;45.27;;
69609;Laerm;56815;52.320;4.858;2023-07-20T00:26:38;30.28;28.26;33.94;;
69609;Laerm;56815;52.320;4.858;2023-07-20T00:26:48;30.30;28.80;31.93;;
69609;Laerm;56815;52.320;4.858;2023-07-20T00:26:58;31.36;29.08;45.63;;
69609;Laerm;56815;52.320;4.858;2023-07-20T00:27:10;30.74;28.44;38.38;;
69609;Laerm;56815;52.320;4.858;2023-07-20T00:27:21;30.76;29.30;33.47;;
69609;Laerm;56815;52.320;4.858;2023-07-20T00:27:31;32.00;28.72;50.51;;
69609;Laerm;56815;52.320;4.858;2023-07-20T00:27:41;31.80;29.28;36.66;;
69609;Laerm;56815;52.320;4.858;2023-07-20T00:27:52;32.05;29.65;36.55;;
69609;Laerm;56815;52.320;4.858;2023-07-20T00:28:03;30.72;29.01;32.06;;
69609;Laerm;56815;52.320;4.858;2023-07-20T00:28:13;31.06;29.00;32.75;;
69609;Laerm;56815;52.320;4.858;2023-07-20T00:28:23;31.04;29.04;39.50;;
69609;Laerm;56815;52.320;4.858;2023-07-20T00:28:33;30.15;28.69;32.27;;
69609;Laerm;56815;52.320;4.858;2023-07-20T00:28:44;30.09;28.77;31.74;;
69609;Laerm;56815;52.320;4.858;2023-07-20T00:28:54;30.03;28.59;32.42;;
69609;Laerm;56815;52.320;4.858;2023-07-20T00:29:04;30.21;29.15;32.44;;
69609;Laerm;56815;52.320;4.858;2023-07-20T00:29:15;30.50;29.09;36.96;;
69609;Laerm;56815;52.320;4.858;2023-07-20T00:29:25;30.24;28.89;32.32;;
69609;Laerm;56815;52.320;4.858;2023-07-20T00:29:35;30.49;28.63;33.48;;
69609;Laerm;56815;52.320;4.858;2023-07-20T00:29:46;30.59;29.33;31.96;;
69609;Laerm;56815;52.320;4.858;2023-07-20T00:29:56;30.85;29.28;32.84;;
69609;Laerm;56815;52.320;4.858;2023-07-20T00:30:06;30.60;29.27;32.46;;
69609;Laerm;56815;52.320;4.858;2023-07-20T00:30:17;30.63;29.15;33.01;;
69609;Laerm;56815;52.320;4.858;2023-07-20T00:30:28;30.59;28.90;32.06;;
69609;Laerm;56815;52.320;4.858;2023-07-20T00:30:39;40.03;29.42;53.42;;
69609;Laerm;56815;52.320;4.858;2023-07-20T00:30:50;33.02;29.73;43.78;;
69609;Laerm;56815;52.320;4.858;2023-07-20T00:31:00;37.43;30.46;46.59;;
69609;Laerm;56815;52.320;4.858;2023-07-20T00:31:11;31.33;29.26;35.49;;
69609;Laerm;56815;52.320;4.858;2023-07-20T00:31:21;30.46;28.82;32.20;;
69609;Laerm;56815;52.320;4.858;2023-07-20T00:31:31;30.60;29.11;32.56;;
69609;Laerm;56815;52.320;4.858;2023-07-20T00:31:41;30.56;29.16;31.88;;
69609;Laerm;56815;52.320;4.858;2023-07-20T00:31:53;30.65;29.11;32.84;;
69609;Laerm;56815;52.320;4.858;2023-07-20T00:32:03;30.35;29.04;31.91;;
69609;Laerm;56815;52.320;4.858;2023-07-20T00:32:15;30.39;29.11;37.33;;
69609;Laerm;56815;52.320;4.858;2023-07-20T00:32:25;30.22;28.63;31.51;;
69609;Laerm;56815;52.320;4.858;2023-07-20T00:32:35;30.18;28.64;31.68;;
69609;Laerm;56815;52.320;4.858;2023-07-20T00:32:45;30.80;29.24;32.47;;
69609;Laerm;56815;52.320;4.858;2023-07-20T00:32:56;31.36;30.21;32.99;;
69609;Laerm;56815;52.320;4.858;2023-07-20T00:33:09;30.42;28.80;32.58;;
69609;Laerm;56815;52.320;4.858;2023-07-20T00:33:20;31.15;28.77;50.00;;
69609;Laerm;56815;52.320;4.858;2023-07-20T00:33:30;30.04;28.54;32.69;;
69609;Laerm;56815;52.320;4.858;2023-07-20T00:33:40;29.99;28.36;32.36;;
69609;Laerm;56815;52.320;4.858;2023-07-20T00:33:51;30.06;28.83;31.47;;
69609;Laerm;56815;52.320;4.858;2023-07-20T00:34:01;30.15;29.01;32.61;;
69609;Laerm;56815;52.320;4.858;2023-07-20T00:34:11;30.53;29.15;32.09;;
69609;Laerm;56815;52.320;4.858;2023-07-20T00:34:21;30.31;29.07;34.67;;
69609;Laerm;56815;52.320;4.858;2023-07-20T00:34:32;30.82;29.01;35.89;;
69609;Laerm;56815;52.320;4.858;2023-07-20T00:34:43;30.60;29.26;34.99;;
69609;Laerm;56815;52.320;4.858;2023-07-20T00:34:53;31.43;29.08;36.18;;
69609;Laerm;56815;52.320;4.858;2023-07-20T00:35:03;35.54;29.42;43.52;;
69609;Laerm;56815;52.320;4.858;2023-07-20T00:35:14;41.42;34.14;46.96;;
69609;Laerm;56815;52.320;4.858;2023-07-20T00:35:24;46.08;39.05;53.32;;
69609;Laerm;56815;52.320;4.858;2023-07-20T00:35:34;45.40;40.09;51.13;;
69609;Laerm;56815;52.320;4.858;2023-07-20T00:35:44;46.04;41.58;49.57;;
69609;Laerm;56815;52.320;4.858;2023-07-20T00:35:55;47.61;42.80;50.98;;
69609;Laerm;56815;52.320;4.858;2023-07-20T00:36:05;47.03;41.76;51.82;;
69609;Laerm;56815;52.320;4.858;2023-07-20T00:36:16;42.02;33.71;49.35;;
69609;Laerm;56815;52.320;4.858;2023-07-20T00:36:26;34.37;29.75;38.78;;
69609;Laerm;56815;52.320;4.858;2023-07-20T00:36:36;31.98;29.31;35.50;;
69609;Laerm;56815;52.320;4.858;2023-07-20T00:36:47;30.90;29.45;32.70;;
69609;Laerm;56815;52.320;4.858;2023-07-20T00:36:59;30.48;28.99;38.76;;
69609;Laerm;56815;52.320;4.858;2023-07-20T00:37:09;30.11;29.03;31.51;;
69609;Laerm;56815;52.320;4.858;2023-07-20T00:37:19;30.29;28.65;32.52;;
69609;Laerm;56815;52.320;4.858;2023-07-20T00:37:29;31.94;29.30;38.66;;
69609;Laerm;56815;52.320;4.858;2023-07-20T00:37:40;35.68;29.66;43.07;;
69609;Laerm;56815;52.320;4.858;2023-07-20T00:37:50;39.20;31.99;46.02;;
69609;Laerm;56815;52.320;4.858;2023-07-20T00:38:00;45.43;35.71;51.62;;
69609;Laerm;56815;52.320;4.858;2023-07-20T00:38:11;45.86;39.82;50.33;;
69609;Laerm;56815;52.320;4.858;2023-07-20T00:38:21;48.55;43.83;56.19;;
69609;Laerm;56815;52.320;4.858;2023-07-20T00:38:32;50.95;46.52;55.29;;
69609;Laerm;56815;52.320;4.858;2023-07-20T00:38:42;47.66;39.87;53.40;;
69609;Laerm;56815;52.320;4.858;2023-07-20T00:38:52;41.10;33.59;45.90;;
69609;Laerm;56815;52.320;4.858;2023-07-20T00:39:03;34.79;31.70;38.66;;
69609;Laerm;56815;52.320;4.858;2023-07-20T00:39:13;32.60;30.37;36.49;;
69609;Laerm;56815;52.320;4.858;2023-07-20T00:39:23;31.44;29.64;39.57;;
69609;Laerm;56815;52.320;4.858;2023-07-20T00:39:34;30.77;29.01;33.43;;
69609;Laerm;56815;52.320;4.858;2023-07-20T00:39:44;30.66;29.38;32.87;;
69609;Laerm;56815;52.320;4.858;2023-07-20T00:39:54;31.21;29.08;35.06;;
69609;Laerm;56815;52.320;4.858;2023-07-20T00:40:05;30.75;28.93;32.86;;
69609;Laerm;56815;52.320;4.858;2023-07-20T00:40:17;31.19;29.50;34.26;;
69609;Laerm;56815;52.320;4.858;2023-07-20T00:40:28;31.07;29.56;35.35;;
69609;Laerm;56815;52.320;4.858;2023-07-20T00:40:38;30.96;29.33;34.55;;
69609;Laerm;56815;52.320;4.858;2023-07-20T00:40:49;31.30;29.56;33.39;;
69609;Laerm;56815;52.320;4.858;2023-07-20T00:40:59;31.46;29.52;35.03;;
69609;Laerm;56815;52.320;4.858;2023-07-20T00:41:09;31.81;30.07;34.78;;
69609;Laerm;56815;52.320;4.858;2023-07-20T00:41:20;31.53;29.80;34.36;;
69609;Laerm;56815;52.320;4.858;2023-07-20T00:41:30;31.22;29.74;33.15;;
69609;Laerm;56815;52.320;4.858;2023-07-20T00:41:42;31.39;29.68;33.06;;
69609;Laerm;56815;52.320;4.858;2023-07-20T00:41:52;32.40;29.87;39.67;;
69609;Laerm;56815;52.320;4.858;2023-07-20T00:42:02;33.68;30.38;39.27;;
69609;Laerm;56815;52.320;4.858;2023-07-20T00:42:13;39.02;33.01;45.22;;
69609;Laerm;56815;52.320;4.858;2023-07-20T00:42:23;45.49;33.68;52.63;;
69609;Laerm;56815;52.320;4.858;2023-07-20T00:42:34;45.39;38.03;52.51;;
69609;Laerm;56815;52.320;4.858;2023-07-20T00:42:44;45.23;40.60;49.43;;
69609;Laerm;56815;52.320;4.858;2023-07-20T00:42:55;46.79;40.96;51.47;;
69609;Laerm;56815;52.320;4.858;2023-07-20T00:43:05;47.39;41.25;53.40;;
69609;Laerm;56815;52.320;4.858;2023-07-20T00:43:15;42.23;35.23;46.65;;
69609;Laerm;56815;52.320;4.858;2023-07-20T00:43:26;36.10;31.29;41.61;;
69609;Laerm;56815;52.320;4.858;2023-07-20T00:43:36;32.33;30.25;34.29;;
69609;Laerm;56815;52.320;4.858;2023-07-20T00:43:46;31.62;29.32;43.93;;
69609;Laerm;56815;52.320;4.858;2023-07-20T00:43:57;30.95;29.03;32.53;;
69609;Laerm;56815;52.320;4.858;2023-07-20T00:44:07;30.75;29.24;32.60;;
69609;Laerm;56815;52.320;4.858;2023-07-20T00:44:17;30.74;29.60;32.92;;
69609;Laerm;56815;52.320;4.858;2023-07-20T00:44:27;30.65;28.68;32.33;;
69609;Laerm;56815;52.320;4.858;2023-07-20T00:44:38;30.81;29.55;35.06;;
69609;Laerm;56815;52.320;4.858;2023-07-20T00:44:48;30.88;29.34;32.54;;
69609;Laerm;56815;52.320;4.858;2023-07-20T00:44:58;31.07;29.45;36.32;;
69609;Laerm;56815;52.320;4.858;2023-07-20T00:45:08;31.28;29.98;32.62;;
69609;Laerm;56815;52.320;4.858;2023-07-20T00:45:19;31.32;29.54;33.08;;
69609;Laerm;56815;52.320;4.858;2023-07-20T00:45:29;31.22;29.55;33.45;;
69609;Laerm;56815;52.320;4.858;2023-07-20T00:45:40;31.15;29.68;32.88;;
69609;Laerm;56815;52.320;4.858;2023-07-20T00:45:51;31.79;29.95;34.42;;
69609;Laerm;56815;52.320;4.858;2023-07-20T00:46:01;34.33;30.70;41.99;;
69609;Laerm;56815;52.320;4.858;2023-07-20T00:46:13;33.30;30.49;37.81;;
69609;Laerm;56815;52.320;4.858;2023-07-20T00:46:24;33.68;30.54;39.93;;
69609;Laerm;56815;52.320;4.858;2023-07-20T00:46:35;32.77;30.27;35.84;;
69609;Laerm;56815;52.320;4.858;2023-07-20T00:46:45;32.55;29.89;36.16;;
69609;Laerm;56815;52.320;4.858;2023-07-20T00:46:56;32.64;30.20;35.09;;
69609;Laerm;56815;52.320;4.858;2023-07-20T00:47:06;32.49;29.89;35.45;;
69609;Laerm;56815;52.320;4.858;2023-07-20T00:47:17;33.01;30.18;37.41;;
69609;Laerm;56815;52.320;4.858;2023-07-20T00:47:27;32.10;29.78;35.18;;
69609;Laerm;56815;52.320;4.858;2023-07-20T00:47:37;32.23;29.95;36.01;;
69609;Laerm;56815;52.320;4.858;2023-07-20T00:47:48;32.46;30.65;37.26;;
69609;Laerm;56815;52.320;4.858;2023-07-20T00:47:58;32.37;30.42;37.13;;
69609;Laerm;56815;52.320;4.858;2023-07-20T00:48:08;31.70;29.58;40.64;;
69609;Laerm;56815;52.320;4.858;2023-07-20T00:48:19;31.08;29.24;34.37;;
69609;Laerm;56815;52.320;4.858;2023-07-20T00:48:30;30.94;29.17;39.37;;
69609;Laerm;56815;52.320;4.858;2023-07-20T00:48:40;30.58;29.05;32.15;;
69609;Laerm;56815;52.320;4.858;2023-07-20T00:48:51;30.73;29.05;32.66;;
69609;Laerm;56815;52.320;4.858;2023-07-20T00:49:02;31.27;29.17;34.71;;
69609;Laerm;56815;52.320;4.858;2023-07-20T00:49:13;30.98;29.60;32.56;;
69609;Laerm;56815;52.320;4.858;2023-07-20T00:49:23;31.42;29.79;34.14;;
69609;Laerm;56815;52.320;4.858;2023-07-20T00:49:34;31.43;29.41;34.62;;
69609;Laerm;56815;52.320;4.858;2023-07-20T00:49:44;32.24;30.41;35.88;;
69609;Laerm;56815;52.320;4.858;2023-07-20T00:49:54;31.68;29.90;34.14;;
69609;Laerm;56815;52.320;4.858;2023-07-20T00:50:05;31.80;30.01;36.63;;
69609;Laerm;56815;52.320;4.858;2023-07-20T00:50:15;32.00;30.35;36.38;;
69609;Laerm;56815;52.320;4.858;2023-07-20T00:50:26;31.48;29.96;33.62;;
69609;Laerm;56815;52.320;4.858;2023-07-20T00:50:38;31.07;29.59;32.84;;
69609;Laerm;56815;52.320;4.858;2023-07-20T00:50:49;31.36;29.40;33.53;;
69609;Laerm;56815;52.320;4.858;2023-07-20T00:51:00;31.62;29.81;33.61;;
69609;Laerm;56815;52.320;4.858;2023-07-20T00:51:12;31.62;29.94;33.15;;
69609;Laerm;56815;52.320;4.858;2023-07-20T00:51:22;32.03;30.40;33.63;;
69609;Laerm;56815;52.320;4.858;2023-07-20T00:51:33;31.96;30.08;33.80;;
69609;Laerm;56815;52.320;4.858;2023-07-20T00:51:43;31.82;29.72;35.84;;
69609;Laerm;56815;52.320;4.858;2023-07-20T00:51:53;31.67;30.14;34.02;;
69609;Laerm;56815;52.320;4.858;2023-07-20T00:52:04;31.38;29.58;33.34;;
69609;Laerm;56815;52.320;4.858;2023-07-20T00:52:16;31.28;28.92;34.19;;
69609;Laerm;56815;52.320;4.858;2023-07-20T00:52:28;31.24;29.82;33.49;;
69609;Laerm;56815;52.320;4.858;2023-07-20T00:52:39;31.32;29.81;33.93;;
69609;Laerm;56815;52.320;4.858;2023-07-20T00:52:49;31.64;30.10;33.94;;
69609;Laerm;56815;52.320;4.858;2023-07-20T00:52:59;31.33;29.60;32.76;;
69609;Laerm;56815;52.320;4.858;2023-07-20T00:53:10;31.63;29.76;34.34;;
69609;Laerm;56815;52.320;4.858;2023-07-20T00:53:20;31.56;29.94;33.47;;
69609;Laerm;56815;52.320;4.858;2023-07-20T00:53:31;31.21;29.79;32.80;;
69609;Laerm;56815;52.320;4.858;2023-07-20T00:53:41;30.96;29.53;33.06;;
69609;Laerm;56815;52.320;4.858;2023-07-20T00:53:52;31.16;29.68;34.39;;
69609;Laerm;56815;52.320;4.858;2023-07-20T00:54:04;30.81;29.29;32.69;;
69609;Laerm;56815;52.320;4.858;2023-07-20T00:54:15;31.17;29.41;33.76;;
69609;Laerm;56815;52.320;4.858;2023-07-20T00:54:26;31.27;29.04;33.80;;
69609;Laerm;56815;52.320;4.858;2023-07-20T00:54:36;31.43;30.13;33.81;;
69609;Laerm;56815;52.320;4.858;2023-07-20T00:54:47;31.90;30.15;33.53;;
69609;Laerm;56815;52.320;4.858;2023-07-20T00:54:57;31.49;29.97;33.00;;
69609;Laerm;56815;52.320;4.858;2023-07-20T00:55:08;31.23;29.63;32.45;;
69609;Laerm;56815;52.320;4.858;2023-07-20T00:55:19;30.80;29.32;32.82;;
69609;Laerm;56815;52.320;4.858;2023-07-20T00:55:29;31.17;29.62;33.21;;
69609;Laerm;56815;52.320;4.858;2023-07-20T00:55:40;31.24;29.43;36.71;;
69609;Laerm;56815;52.320;4.858;2023-07-20T00:55:50;31.80;30.19;36.29;;
69609;Laerm;56815;52.320;4.858;2023-07-20T00:56:00;31.74;30.16;33.73;;
69609;Laerm;56815;52.320;4.858;2023-07-20T00:56:11;31.27;29.38;35.59;;
69609;Laerm;56815;52.320;4.858;2023-07-20T00:56:21;30.57;29.19;32.12;;
69609;Laerm;56815;52.320;4.858;2023-07-20T00:56:32;30.61;29.37;32.32;;
69609;Laerm;56815;52.320;4.858;2023-07-20T00:56:43;31.20;29.52;33.89;;
69609;Laerm;56815;52.320;4.858;2023-07-20T00:56:53;31.54;29.62;34.01;;
69609;Laerm;56815;52.320;4.858;2023-07-20T00:57:04;30.86;29.32;33.21;;
69609;Laerm;56815;52.320;4.858;2023-07-20T00:57:17;30.86;29.20;34.18;;
69609;Laerm;56815;52.320;4.858;2023-07-20T00:57:28;31.02;29.23;33.24;;
69609;Laerm;56815;52.320;4.858;2023-07-20T00:57:38;31.29;29.58;33.78;;
69609;Laerm;56815;52.320;4.858;2023-07-20T00:57:48;31.35;29.96;33.30;;
69609;Laerm;56815;52.320;4.858;2023-07-20T00:57:59;31.49;29.99;33.67;;
69609;Laerm;56815;52.320;4.858;2023-07-20T00:58:10;31.55;29.63;34.70;;
69609;Laerm;56815;52.320;4.858;2023-07-20T00:58:20;32.04;30.45;36.80;;
69609;Laerm;56815;52.320;4.858;2023-07-20T00:58:30;31.86;30.04;33.57;;
69609;Laerm;56815;52.320;4.858;2023-07-20T00:58:41;31.88;29.95;33.73;;
69609;Laerm;56815;52.320;4.858;2023-07-20T00:58:52;32.11;29.94;33.99;;
69609;Laerm;56815;52.320;4.858;2023-07-20T00:59:02;35.21;31.17;40.95;;
69609;Laerm;56815;52.320;4.858;2023-07-20T00:59:13;34.24;31.36;39.57;;
69609;Laerm;56815;52.320;4.858;2023-07-20T00:59:23;33.21;30.80;37.90;;
69609;Laerm;56815;52.320;4.858;2023-07-20T00:59:34;33.70;30.79;40.83;;